Monday, December 10, 2018, 10:06 PM EST
Back to Local

KTAN, Taunton Municipal Airport

Location: East Taunton, MA, United States Lat: 41.883
Local Time: 10:06 PM EST ( 3:06 GMT) Lon: -71.017
Time Zone: US/Eastern Elev: 42 ft

Show me the last for .
Show Decoded

2018-12-10 20:52 METAR KTAN 110152Z AUTO 00000KT 5SM BR CLR M07/M09 A3016 RMK AO2 SLP214 I1000
                 T10721094 =
2018-12-10 19:52 METAR KTAN 110052Z AUTO 00000KT 6SM BR CLR M07/M09 A3016 RMK AO2 SLP213
                 T10671089 =
2018-12-10 18:52 METAR KTAN 102352Z AUTO 00000KT 8SM CLR M06/M09 A3014 RMK AO2 SLP205 T10611094
                 10050 21061 53012 =
2018-12-10 17:52 METAR KTAN 102252Z AUTO 00000KT 9SM CLR M04/M09 A3012 RMK AO2 SLP200 T10391089 =
2018-12-10 16:52 METAR KTAN 102152Z AUTO 00000KT 10SM CLR M03/M08 A3011 RMK AO2 SLP195 T10281083
                 =
2018-12-10 15:52 METAR KTAN 102052Z AUTO VRB04KT 10SM CLR 03/M09 A3010 RMK AO2 SLP193 T00281094
                 53012 =
2018-12-10 14:52 METAR KTAN 101952Z AUTO VRB04KT 10SM CLR 04/M09 A3008 RMK AO2 SLP186 T00391094 =
2018-12-10 13:52 METAR KTAN 101852Z AUTO 35004KT 10SM CLR 04/M09 A3008 RMK AO2 SLP185 T00441089 =
2018-12-10 12:52 METAR KTAN 101752Z AUTO VRB05KT 10SM CLR 04/M08 A3007 RMK AO2 SLP181 T00441078
                 10044 21094 55011 =
2018-12-10 11:52 METAR KTAN 101652Z AUTO VRB05KT 10SM CLR 04/M08 A3006 RMK AO2 SLP180 T00391083 =
2018-12-10 10:52 METAR KTAN 101552Z AUTO 34007KT 10SM CLR 03/M08 A3008 RMK AO2 SLP187 T00331083 =
2018-12-10 09:52 METAR KTAN 101452Z AUTO 33008KT 10SM CLR 02/M07 A3010 RMK AO2 SLP192 T00171072
                 53012 =
2018-12-10 08:52 METAR KTAN 101352Z AUTO 35005KT 10SM CLR M01/M06 A3008 RMK AO2 SLP187 T10061061
                 =
2018-12-10 07:52 METAR KTAN 101252Z AUTO 00000KT 9SM CLR M07/M08 A3007 RMK AO2 SLP183 T10671078 =
2018-12-10 06:52 METAR KTAN 101152Z AUTO 00000KT 10SM CLR M09/M11 A3006 RMK AO2 SLP181 I1000
                 I6001 T10891111 11061 21094 53002 =
2018-12-10 05:52 METAR KTAN 101052Z AUTO 00000KT 8SM CLR M08/M11 A3005 RMK AO2 SLP177 I1000
                 T10831111 =
2018-12-10 04:52 METAR KTAN 100952Z AUTO 00000KT 9SM CLR M08/M11 A3005 RMK AO2 SLP176 I1000
                 T10831106 =
2018-12-10 03:52 METAR KTAN 100852Z AUTO 00000KT 7SM CLR M08/M10 A3006 RMK AO2 SLP178 I3001
                 T10831100 58014 =
2018-12-10 02:52 METAR KTAN 100752Z AUTO 00000KT 7SM CLR M08/M10 A3007 RMK AO2 SLP184 I1001
                 T10781100 =
2018-12-10 01:52 METAR KTAN 100652Z AUTO 00000KT 8SM CLR M07/M09 A3009 RMK AO2 SLP190 I1000
                 T10671089 =
2018-12-10 00:52 METAR KTAN 100552Z AUTO 00000KT 9SM CLR M06/M08 A3010 RMK AO2 SLP192 T10611078
                 10000 21061 58018 =
2018-12-09 23:52 METAR KTAN 100452Z AUTO 00000KT 9SM CLR M04/M08 A3013 RMK AO2 SLP203 T10441078
                 400171117 =

Support USWX by starting your Amazon purchase here.